FBFT

Francistown Airport

Francistown, Botswana
METAR FBFT 181900Z 10013KT 9999 BKN015 17/12 Q1024
Observed Flight Rules
Aug-18 @ 19:00 UTC (5 hours ago) Marginal Visual Flight Rules
Wind Visibility Clouds
100° at 13 knots 10,000+ meters
  • Broken at 1,500' AGL
Temperatures Readings
Current 17°C / 63°F
Dewpoint 12°C / 54°F
Humidity 73%
Altimeter 30.24" Hg
Pressure 1024 hPa
Elevation 1000
METAR FBFT 181900Z 10013KT 9999 BKN015 17/12 Q1024
Observed Flight Rules
Aug-18 @ 19:00 UTC
(5 hours ago)
MVFR
Wind Visibility
100° at 13 knots 10,000+ meters
Clouds
  • Broken at 1,500' AGL
Temperature Dewpoint
17°C / 63°F 12°C / 54°F
Humidity Altimeter Pressure
73% 30.24" Hg 1024 hPa